Time;durP1;ratioP1;P1;durP2;ratioP2;P2;SDS_P1;SDS_P2;PMS_P1;PMS_P2;Temp;Humidity;BMP_temperature;BMP_pressure;BME280_temperature;BME280_humidity;BME280_pressure;Samples;Min_cycle;Max_cycle;Signal;HPM_P1;HPM_P2
2023/08/10 00:02:08;;;;;;;0.10;0.10;;;;;;;23.51;54.91;102130.41;5013199;28;20033;-71
2023/08/10 00:04:33;;;;;;;0.10;0.10;;;;;;;23.36;54.87;102133.22;5010087;28;20034;-71
2023/08/10 00:06:58;;;;;;;0.10;0.10;;;;;;;23.51;54.15;102127.69;5013167;28;20034;-71
2023/08/10 00:09:24;;;;;;;0.10;0.10;;;;;;;23.63;54.03;102135.59;5010751;28;20100;-71
2023/08/10 00:11:49;;;;;;;0.03;0.03;;;;;;;23.64;54.50;102128.19;5024096;28;20041;-71
2023/08/10 00:14:15;;;;;;;0.10;0.10;;;;;;;23.72;54.51;102124.84;5016740;28;20136;-71
2023/08/10 00:16:40;;;;;;;0.10;0.10;;;;;;;23.79;54.11;102133.59;5015847;28;20473;-71
2023/08/10 00:19:06;;;;;;;0.10;0.10;;;;;;;24.15;52.64;102124.94;5022587;28;20026;-70
2023/08/10 00:21:31;;;;;;;0.10;0.10;;;;;;;23.74;53.38;102122.66;5010719;28;20565;-70
2023/08/10 00:23:56;;;;;;;0.10;0.10;;;;;;;23.63;54.08;102119.13;5010719;28;20061;-70
2023/08/10 00:26:24;;;;;;;0.10;0.10;;;;;;;23.10;55.77;102120.63;5010706;28;20046;-72
2023/08/10 00:28:50;;;;;;;0.10;0.10;;;;;;;23.48;54.85;102111.78;5011315;28;20118;-71
2023/08/10 00:31:16;;;;;;;0.13;0.13;;;;;;;23.12;56.33;102123.91;5012016;28;20167;-70
2023/08/10 00:33:42;;;;;;;0.10;0.10;;;;;;;23.78;54.49;102124.56;5014920;28;20064;-70
2023/08/10 00:36:07;;;;;;;0.10;0.10;;;;;;;23.83;54.64;102118.19;5027747;28;20053;-70
2023/08/10 00:38:38;;;;;;;0.10;0.10;;;;;;;24.05;53.91;102122.25;5022109;28;20038;-71
2023/08/10 00:41:04;;;;;;;0.00;0.00;;;;;;;23.84;53.84;102120.66;5014572;28;20053;-71
2023/08/10 00:43:29;;;;;;;0.10;0.10;;;;;;;24.08;53.37;102123.56;5018822;28;20137;-72
2023/08/10 00:45:55;;;;;;;0.10;0.10;;;;;;;23.96;54.14;102123.88;5011244;28;20096;-71
2023/08/10 00:48:22;;;;;;;0.10;0.10;;;;;;;23.85;53.77;102124.22;5011033;28;20093;-71
2023/08/10 00:50:49;;;;;;;0.10;0.10;;;;;;;23.92;54.01;102122.03;5014505;28;20053;-70
2023/08/10 00:53:16;;;;;;;0.10;0.10;;;;;;;23.95;54.29;102127.75;5017327;28;20402;-71
2023/08/10 00:55:42;;;;;;;0.10;0.10;;;;;;;24.02;54.08;102124.72;5056291;28;20101;-70
2023/08/10 00:58:11;;;;;;;0.08;0.08;;;;;;;24.13;53.15;102129.06;5014349;28;20058;-70
2023/08/10 01:00:37;;;;;;;0.10;0.10;;;;;;;23.98;53.46;102132.66;5030439;28;20043;-71
2023/08/10 01:03:03;;;;;;;0.10;0.10;;;;;;;23.89;53.85;102133.56;5021538;28;20041;-70
2023/08/10 01:05:33;;;;;;;0.10;0.10;;;;;;;23.96;53.91;102129.38;5021894;28;20334;-71
2023/08/10 01:08:11;;;;;;;0.10;0.10;;;;;;;24.23;53.00;102126.25;5015383;28;20034;-70
2023/08/10 01:10:47;;;;;;;0.10;0.10;;;;;;;24.09;53.32;102127.97;4995615;28;20448;-71
2023/08/10 01:13:37;;;;;;;0.10;0.10;;;;;;;24.22;52.84;102127.34;5010906;28;20042;-72
2023/08/10 01:16:08;;;;;;;0.10;0.10;;;;;;;24.12;53.30;102130.97;5014312;28;20044;-71
2023/08/10 01:18:34;;;;;;;0.10;0.10;;;;;;;23.86;53.84;102136.88;5026892;28;20036;-71
2023/08/10 01:21:03;;;;;;;0.05;0.05;;;;;;;23.50;55.07;102134.28;5010931;28;20040;-71
2023/08/10 01:23:35;;;;;;;0.00;0.00;;;;;;;23.84;54.27;102133.59;5009080;28;20040;-71
2023/08/10 01:26:01;;;;;;;0.10;0.10;;;;;;;23.84;54.37;102139.88;5009919;28;20584;-70
2023/08/10 01:28:27;;;;;;;0.10;0.10;;;;;;;24.05;53.99;102146.13;5011034;28;20080;-71
2023/08/10 01:30:52;;;;;;;0.10;0.10;;;;;;;23.39;55.45;102156.53;5010523;28;20033;-71
2023/08/10 01:33:18;;;;;;;0.10;0.10;;;;;;;24.00;54.02;102148.88;5013837;28;20583;-70
2023/08/10 01:35:44;;;;;;;0.10;0.10;;;;;;;23.44;55.37;102149.13;5023800;28;20102;-71
2023/08/10 01:38:10;;;;;;;0.10;0.10;;;;;;;23.59;55.53;102142.75;5011891;28;20045;-71
2023/08/10 01:40:36;;;;;;;0.10;0.10;;;;;;;23.68;55.30;102143.00;5010967;28;20021;-71
2023/08/10 01:43:03;;;;;;;0.05;0.05;;;;;;;23.50;55.68;102149.91;5010083;28;20030;-72
2023/08/10 01:45:30;;;;;;;0.10;0.10;;;;;;;23.72;54.93;102147.66;5010443;28;20049;-71
2023/08/10 01:48:12;;;;;;;0.10;0.10;;;;;;;23.80;54.01;102147.06;5010278;28;20038;-71
2023/08/10 01:50:41;;;;;;;0.10;0.10;;;;;;;23.19;56.68;102151.06;5002641;28;20409;-70
2023/08/10 01:53:15;;;;;;;0.10;0.10;;;;;;;23.38;55.70;102152.97;5013686;28;20041;-71
2023/08/10 01:55:41;;;;;;;0.05;0.05;;;;;;;23.51;55.37;102159.78;5017404;28;20486;-71
2023/08/10 01:58:06;;;;;;;0.10;0.10;;;;;;;23.66;55.23;102157.00;5010170;28;20048;-70
2023/08/10 02:00:33;;;;;;;0.10;0.10;;;;;;;23.46;55.88;102159.81;5019886;28;20034;-71
2023/08/10 02:02:58;;;;;;;0.00;0.00;;;;;;;23.64;55.18;102159.22;5009759;28;20104;-71
2023/08/10 02:05:24;;;;;;;0.10;0.10;;;;;;;23.71;54.33;102162.47;5009905;28;20041;-70
2023/08/10 02:07:49;;;;;;;0.10;0.10;;;;;;;23.94;54.31;102155.50;5010993;28;20030;-71
2023/08/10 02:10:16;;;;;;;0.10;0.10;;;;;;;23.32;55.84;102161.50;5013776;28;20030;-71
2023/08/10 02:12:41;;;;;;;0.00;0.00;;;;;;;23.86;54.28;102156.09;5025068;28;20034;-70
2023/08/10 02:15:07;;;;;;;0.10;0.10;;;;;;;23.68;54.39;102159.47;5008816;28;20076;-71
2023/08/10 02:17:36;;;;;;;0.10;0.10;;;;;;;23.52;55.43;102153.22;5008840;28;20026;-71
2023/08/10 02:20:11;;;;;;;0.03;0.03;;;;;;;23.80;54.81;102157.22;5012784;28;20084;-70
2023/08/10 02:22:37;;;;;;;0.10;0.10;;;;;;;23.68;55.13;102152.06;4999218;28;20021;-72
2023/08/10 02:25:03;;;;;;;0.10;0.10;;;;;;;23.79;54.72;102155.56;5020901;28;20045;-71
2023/08/10 02:27:29;;;;;;;0.05;0.05;;;;;;;23.74;55.38;102144.63;5009722;28;20552;-71
2023/08/10 02:29:54;;;;;;;0.10;0.10;;;;;;;23.68;55.04;102153.97;5019530;28;20045;-70
2023/08/10 02:32:20;;;;;;;0.08;0.08;;;;;;;23.59;54.98;102142.75;5027707;28;20037;-70
2023/08/10 02:34:45;;;;;;;0.10;0.10;;;;;;;23.63;54.78;102152.06;5015184;28;20094;-70
2023/08/10 02:37:11;;;;;;;0.10;0.10;;;;;;;23.67;55.22;102152.31;5021388;28;20022;-71
2023/08/10 02:39:36;;;;;;;0.10;0.10;;;;;;;23.71;54.90;102156.97;5009686;28;20034;-71
2023/08/10 02:42:02;;;;;;;0.10;0.10;;;;;;;23.55;55.17;102153.47;5020738;28;20030;-71
2023/08/10 02:44:27;;;;;;;0.10;0.10;;;;;;;23.54;55.13;102156.50;5010229;28;20127;-70
2023/08/10 02:46:53;;;;;;;0.10;0.10;;;;;;;23.34;55.45;102160.13;5009947;28;20141;-69
2023/08/10 02:49:18;;;;;;;0.00;0.00;;;;;;;23.35;55.56;102169.97;5020019;28;20691;-71
2023/08/10 02:51:44;;;;;;;0.10;0.10;;;;;;;23.36;56.04;102168.91;5009622;28;20089;-71
2023/08/10 02:54:09;;;;;;;0.08;0.08;;;;;;;23.35;55.67;102166.44;5009471;28;20038;-70
2023/08/10 02:56:34;;;;;;;0.35;0.25;;;;;;;23.37;55.81;102167.78;5012873;28;20331;-71
2023/08/10 02:59:00;;;;;;;0.10;0.10;;;;;;;23.27;55.84;102166.97;5016828;28;20024;-72
2023/08/10 03:01:26;;;;;;;0.10;0.10;;;;;;;23.37;55.35;102175.22;5029875;28;20030;-71
2023/08/10 03:03:51;;;;;;;0.10;0.10;;;;;;;23.22;56.17;102177.94;5015209;28;20038;-69
2023/08/10 03:06:16;;;;;;;0.10;0.10;;;;;;;23.12;56.71;102177.94;5026864;28;20037;-71
2023/08/10 03:08:42;;;;;;;0.10;0.10;;;;;;;23.26;56.08;102174.38;5013089;28;20074;-70
2023/08/10 03:11:07;;;;;;;0.10;0.10;;;;;;;22.97;57.84;102178.78;5013007;28;20041;-71
2023/08/10 03:13:32;;;;;;;0.10;0.10;;;;;;;23.38;56.26;102172.19;5013846;28;20030;-70
2023/08/10 03:15:58;;;;;;;0.10;0.10;;;;;;;23.41;56.24;102159.81;5016541;28;20090;-70
2023/08/10 03:18:23;;;;;;;0.13;0.13;;;;;;;23.41;56.31;102165.28;5029241;28;20029;-70
2023/08/10 03:20:49;;;;;;;0.10;0.10;;;;;;;23.37;56.62;102162.28;5012624;28;20038;-72
2023/08/10 03:23:14;;;;;;;0.10;0.10;;;;;;;23.33;56.01;102165.88;5011078;28;20045;-71
2023/08/10 03:25:39;;;;;;;0.10;0.10;;;;;;;23.34;56.34;102164.78;5014770;28;20481;-72
2023/08/10 03:28:05;;;;;;;0.10;0.10;;;;;;;23.30;56.54;102166.41;5016153;28;20108;-71
2023/08/10 03:30:32;;;;;;;0.10;0.10;;;;;;;23.42;55.76;102167.78;5024339;28;20038;-70
2023/08/10 03:32:58;;;;;;;0.10;0.10;;;;;;;23.50;55.40;102161.72;5012684;28;20095;-70
2023/08/10 03:35:23;;;;;;;0.10;0.10;;;;;;;23.15;56.94;102172.75;5012516;28;20038;-70
2023/08/10 03:37:49;;;;;;;0.20;0.20;;;;;;;23.48;55.97;102155.69;5013439;28;20025;-71
2023/08/10 03:40:14;;;;;;;0.00;0.00;;;;;;;23.57;55.64;102160.59;5016607;28;20022;-70
2023/08/10 03:42:39;;;;;;;0.10;0.10;;;;;;;23.64;55.27;102159.22;5028470;28;20036;-71
2023/08/10 03:45:07;;;;;;;0.10;0.10;;;;;;;23.48;55.48;102165.84;5015209;28;20371;-70
2023/08/10 03:47:32;;;;;;;0.10;0.10;;;;;;;23.46;56.02;102177.09;5019192;28;20037;-71
2023/08/10 03:49:58;;;;;;;0.10;0.10;;;;;;;23.45;55.95;102169.13;5017017;28;20049;-71
2023/08/10 03:52:23;;;;;;;0.10;0.10;;;;;;;23.49;55.98;102168.31;5012919;28;20037;-71
2023/08/10 03:54:48;;;;;;;0.10;0.10;;;;;;;23.49;55.61;102164.72;5012252;28;20117;-70
2023/08/10 03:57:14;;;;;;;0.10;0.10;;;;;;;23.50;55.78;102166.38;5015565;28;20504;-71
2023/08/10 03:59:39;;;;;;;0.10;0.10;;;;;;;23.53;55.39;102163.91;5024716;28;20047;-71
2023/08/10 04:02:05;;;;;;;0.10;0.10;;;;;;;23.43;55.70;102168.59;5009613;28;20039;-70
2023/08/10 04:04:30;;;;;;;0.20;0.20;;;;;;;23.49;55.83;102168.31;5001635;28;20468;-71
2023/08/10 04:06:55;;;;;;;0.00;0.00;;;;;;;23.51;55.91;102168.00;5002795;28;20030;-71
2023/08/10 04:09:21;;;;;;;0.10;0.10;;;;;;;23.38;56.48;102163.94;5010693;28;20034;-71
2023/08/10 04:11:46;;;;;;;0.10;0.10;;;;;;;23.41;56.58;102165.28;5005628;28;20038;-70
2023/08/10 04:14:12;;;;;;;0.10;0.10;;;;;;;23.47;56.36;102162.28;5011318;28;20042;-71
2023/08/10 04:16:37;;;;;;;0.10;0.10;;;;;;;23.30;57.53;102164.47;5011595;28;20037;-70
2023/08/10 04:19:03;;;;;;;0.10;0.10;;;;;;;23.51;56.34;102165.28;5011459;28;20038;-70
2023/08/10 04:21:28;;;;;;;0.05;0.05;;;;;;;23.53;55.99;102163.06;5015199;28;20124;-68
2023/08/10 04:23:54;;;;;;;0.10;0.10;;;;;;;23.57;56.02;102161.41;5030208;28;20125;-70
2023/08/10 04:26:19;;;;;;;0.10;0.10;;;;;;;23.51;55.60;102168.84;5012986;28;20053;-71
2023/08/10 04:28:44;;;;;;;0.10;0.10;;;;;;;23.66;55.83;102159.75;5011365;28;20022;-70
2023/08/10 04:31:10;;;;;;;0.10;0.10;;;;;;;23.49;56.18;102161.97;5011757;28;20045;-70
2023/08/10 04:33:35;;;;;;;0.10;0.10;;;;;;;23.72;56.24;102153.13;5011392;28;20654;-70
2023/08/10 04:36:02;;;;;;;0.10;0.10;;;;;;;23.62;56.27;102155.91;5011528;28;20109;-72
2023/08/10 04:38:27;;;;;;;0.10;0.10;;;;;;;23.34;57.40;102165.59;5013496;28;20042;-71
2023/08/10 04:40:53;;;;;;;0.10;0.10;;;;;;;23.56;56.13;102157.03;5017421;28;20370;-71
2023/08/10 04:43:18;;;;;;;0.10;0.10;;;;;;;23.24;58.08;102164.75;5025032;28;20087;-70
2023/08/10 04:45:44;;;;;;;0.10;0.10;;;;;;;23.71;56.20;102161.63;5011373;28;20037;-71
2023/08/10 04:48:10;;;;;;;0.10;0.10;;;;;;;23.66;56.82;102159.75;5020993;28;20559;-70
2023/08/10 04:50:36;;;;;;;0.10;0.10;;;;;;;23.78;55.85;102165.75;5011195;28;20057;-71
2023/08/10 04:53:02;;;;;;;0.00;0.00;;;;;;;23.81;56.48;102164.34;5011201;28;20397;-71
2023/08/10 04:55:28;;;;;;;0.00;0.00;;;;;;;23.64;56.62;102161.13;5011382;28;20034;-71
2023/08/10 04:57:53;;;;;;;0.00;0.00;;;;;;;23.78;56.22;102164.91;5014490;28;20034;-71
2023/08/10 05:00:19;;;;;;;0.00;0.00;;;;;;;23.85;55.47;102171.75;5028785;28;20038;-70
2023/08/10 05:02:44;;;;;;;0.10;0.10;;;;;;;23.27;57.21;102170.50;5025741;28;20038;-70
2023/08/10 05:05:11;;;;;;;0.05;0.05;;;;;;;23.47;56.83;102176.00;5019749;28;20497;-71
2023/08/10 05:07:37;;;;;;;0.10;0.10;;;;;;;23.74;56.24;102174.81;5019283;28;20121;-71
2023/08/10 05:10:05;;;;;;;0.10;0.10;;;;;;;23.63;56.69;102170.44;5010677;28;20540;-72
2023/08/10 05:12:31;;;;;;;0.10;0.10;;;;;;;23.65;56.09;102168.25;5009624;28;20030;-71
2023/08/10 05:14:56;;;;;;;0.10;0.10;;;;;;;23.41;56.90;102168.88;5014207;28;20041;-71
2023/08/10 05:17:22;;;;;;;0.10;0.10;;;;;;;23.78;55.87;102173.97;5010742;28;20478;-70
2023/08/10 05:19:48;;;;;;;0.10;0.10;;;;;;;23.87;55.96;102176.94;5006349;28;20273;-70
2023/08/10 05:22:13;;;;;;;0.10;0.10;;;;;;;23.83;55.96;102173.94;5013625;28;20029;-70
2023/08/10 05:24:39;;;;;;;0.03;0.03;;;;;;;23.98;55.30;102175.81;5020867;28;20044;-71
2023/08/10 05:27:05;;;;;;;0.10;0.10;;;;;;;23.83;55.47;102176.69;5019190;28;20084;-70
2023/08/10 05:29:30;;;;;;;0.10;0.10;;;;;;;24.10;54.67;102181.81;5015449;28;20143;-69
2023/08/10 05:31:56;;;;;;;0.10;0.10;;;;;;;23.92;56.05;102182.44;5011224;28;20054;-70
2023/08/10 05:34:21;;;;;;;0.05;0.05;;;;;;;23.76;56.51;102178.94;5024272;28;20033;-70
2023/08/10 05:36:47;;;;;;;0.10;0.10;;;;;;;23.98;55.68;102182.09;5018387;28;20053;-70
2023/08/10 05:39:12;;;;;;;0.10;0.10;;;;;;;24.14;55.18;102186.44;5009011;28;20031;-70
2023/08/10 05:41:38;;;;;;;0.05;0.05;;;;;;;23.95;55.55;102182.69;5017157;28;20056;-71
2023/08/10 05:44:03;;;;;;;0.10;0.10;;;;;;;24.37;55.25;102184.97;5017045;28;20041;-71
2023/08/10 05:46:29;;;;;;;0.10;0.10;;;;;;;23.56;57.35;102189.97;5010296;28;20029;-72
2023/08/10 05:48:55;;;;;;;0.10;0.10;;;;;;;23.17;58.15;102192.50;5010087;28;20112;-71
2023/08/10 05:51:21;;;;;;;0.10;0.10;;;;;;;24.16;56.30;102192.50;5013218;28;20046;-71
2023/08/10 05:53:46;;;;;;;0.10;0.10;;;;;;;23.55;56.43;102194.63;5023901;28;20041;-71
2023/08/10 05:56:11;;;;;;;0.10;0.10;;;;;;;24.05;55.62;102187.34;5012192;28;20046;-70
2023/08/10 05:58:37;;;;;;;0.10;0.10;;;;;;;24.21;55.26;102192.47;5010529;28;20032;-70
2023/08/10 06:01:03;;;;;;;0.03;0.03;;;;;;;24.22;55.56;102193.28;5008244;28;20053;-70
2023/08/10 06:03:29;;;;;;;0.00;0.00;;;;;;;24.40;55.40;102192.63;5017750;28;20029;-70
2023/08/10 06:05:54;;;;;;;0.10;0.10;;;;;;;24.57;55.23;102195.78;5010313;28;20062;-71
2023/08/10 06:08:20;;;;;;;0.10;0.10;;;;;;;24.55;54.84;102200.75;5016904;28;20045;-70
2023/08/10 06:10:49;;;;;;;0.00;0.00;;;;;;;24.43;55.84;102200.31;5012529;28;20483;-70
2023/08/10 06:13:15;;;;;;;0.00;0.00;;;;;;;24.04;56.70;102196.66;5018193;28;20550;-71
2023/08/10 06:15:40;;;;;;;0.00;0.00;;;;;;;23.74;56.90;102202.25;5017184;28;20033;-70
2023/08/10 06:18:06;;;;;;;0.03;0.03;;;;;;;23.47;58.22;102203.44;5014255;28;20039;-71
2023/08/10 06:20:33;;;;;;;0.10;0.10;;;;;;;24.47;55.59;102206.06;5009637;28;20124;-70
2023/08/10 06:22:58;;;;;;;0.10;0.10;;;;;;;24.74;55.08;102204.53;5015327;28;20072;-71
2023/08/10 06:25:24;;;;;;;0.00;0.00;;;;;;;24.81;55.01;102205.00;5017828;28;20453;-70
2023/08/10 06:27:50;;;;;;;0.00;0.00;;;;;;;25.02;54.20;102202.91;5019791;28;20050;-70
2023/08/10 06:30:16;;;;;;;0.08;0.08;;;;;;;24.95;54.45;102213.41;5018245;28;20069;-69
2023/08/10 06:32:42;;;;;;;0.08;0.08;;;;;;;25.17;53.62;102208.28;5019237;28;20145;-70
2023/08/10 06:35:09;;;;;;;0.10;0.10;;;;;;;25.10;53.58;102213.31;5012193;28;20062;-71
2023/08/10 06:37:35;;;;;;;0.00;0.00;;;;;;;25.19;53.26;102204.13;5010467;28;20324;-71
2023/08/10 06:40:00;;;;;;;0.03;0.03;;;;;;;25.24;53.72;102206.81;5012242;28;20041;-71
2023/08/10 06:42:26;;;;;;;0.10;0.10;;;;;;;25.23;53.27;102209.88;5028439;28;20386;-71
2023/08/10 06:44:51;;;;;;;0.00;0.00;;;;;;;25.03;53.43;102218.31;5017952;28;20038;-71
2023/08/10 06:47:16;;;;;;;0.00;0.00;;;;;;;25.50;52.44;102214.84;5018308;28;20045;-71
2023/08/10 06:49:42;;;;;;;0.00;0.00;;;;;;;25.81;51.74;102216.13;5020805;28;20053;-71
2023/08/10 06:52:08;;;;;;;0.00;0.00;;;;;;;25.96;51.68;102215.97;5013120;28;20054;-71
2023/08/10 06:54:34;;;;;;;0.00;0.00;;;;;;;25.96;51.32;102219.53;5013415;28;20057;-72
2023/08/10 06:57:00;;;;;;;0.00;0.00;;;;;;;25.93;51.15;102219.28;5016415;28;20092;-70
2023/08/10 06:59:26;;;;;;;0.00;0.00;;;;;;;25.81;51.04;102216.13;5024132;28;20103;-70
2023/08/10 07:01:51;;;;;;;0.00;0.00;;;;;;;25.38;52.15;102217.97;5032887;28;20465;-70
2023/08/10 07:04:17;;;;;;;0.00;0.00;;;;;;;25.49;51.61;102224.22;5015505;28;20042;-69
2023/08/10 07:06:43;;;;;;;0.10;0.10;;;;;;;25.80;50.46;102217.25;5027724;28;20066;-71
2023/08/10 07:09:09;;;;;;;0.10;0.10;;;;;;;26.04;49.61;102223.59;5013173;28;20219;-71
2023/08/10 07:11:35;;;;;;;0.00;0.00;;;;;;;25.96;50.72;102207.72;5022328;28;20045;-71
2023/08/10 07:14:01;;;;;;;0.00;0.00;;;;;;;25.42;51.10;102220.97;5017264;28;20405;-72
2023/08/10 07:16:26;;;;;;;0.10;0.10;;;;;;;25.71;50.39;102208.81;5021299;28;20401;-71
2023/08/10 07:18:52;;;;;;;0.00;0.00;;;;;;;26.48;48.94;102212.22;5022154;28;20041;-71
2023/08/10 07:21:17;;;;;;;0.00;0.00;;;;;;;25.96;49.75;102211.25;5021489;28;20080;-70
2023/08/10 07:23:43;;;;;;;0.00;0.00;;;;;;;26.14;49.03;102219.91;5021852;28;20029;-71
2023/08/10 07:26:08;;;;;;;0.00;0.00;;;;;;;26.48;48.85;102212.22;5018794;28;20443;-71
2023/08/10 07:28:33;;;;;;;0.00;0.00;;;;;;;26.07;48.82;102218.31;5012826;28;20030;-70
2023/08/10 07:31:00;;;;;;;0.00;0.00;;;;;;;25.32;48.82;102221.06;5011354;28;20034;-70
2023/08/10 07:33:25;;;;;;;0.00;0.00;;;;;;;25.40;48.14;102214.94;5015980;28;20030;-70
2023/08/10 07:35:50;;;;;;;0.00;0.00;;;;;;;25.62;47.41;102218.84;5026895;28;20040;-70
2023/08/10 07:38:16;;;;;;;0.00;0.00;;;;;;;25.30;47.51;102217.78;5014769;28;20498;-69
2023/08/10 07:40:42;;;;;;;0.00;0.00;;;;;;;24.64;49.75;102220.22;5011645;28;20099;-72
2023/08/10 07:43:08;;;;;;;0.00;0.00;;;;;;;24.89;49.42;102226.41;5012273;28;20038;-71
2023/08/10 07:45:33;;;;;;;0.00;0.00;;;;;;;25.47;48.46;102223.69;4994852;28;20431;-70
2023/08/10 07:47:58;;;;;;;0.00;0.00;;;;;;;25.73;48.01;102220.38;5011654;28;20038;-70
2023/08/10 07:50:24;;;;;;;0.00;0.00;;;;;;;25.72;47.76;102217.91;5013182;28;20030;-70
2023/08/10 07:52:49;;;;;;;0.00;0.00;;;;;;;25.04;47.81;102217.22;5020453;28;20050;-70
2023/08/10 07:55:15;;;;;;;0.10;0.10;;;;;;;24.93;48.94;102218.38;5010877;28;20501;-71
2023/08/10 07:57:41;;;;;;;0.00;0.00;;;;;;;24.77;49.30;102219.59;5019534;28;20034;-70
2023/08/10 08:00:07;;;;;;;0.08;0.08;;;;;;;25.76;47.38;102216.22;5015857;28;20084;-71
2023/08/10 08:02:33;;;;;;;0.08;0.08;;;;;;;26.08;46.14;102208.13;5014163;28;20065;-70
2023/08/10 08:04:58;;;;;;;0.00;0.00;;;;;;;25.45;45.94;102212.16;5019388;28;20044;-71
2023/08/10 08:07:25;;;;;;;0.00;0.00;;;;;;;26.28;45.56;102209.78;5012323;28;20025;-72
2023/08/10 08:09:51;;;;;;;0.00;0.00;;;;;;;25.58;47.48;102217.78;5011217;28;20030;-70
2023/08/10 08:12:16;;;;;;;0.00;0.00;;;;;;;25.60;46.34;102218.31;5011017;28;20056;-70
2023/08/10 08:14:43;;;;;;;0.00;0.00;;;;;;;26.05;45.93;102216.94;5015867;28;20033;-71
2023/08/10 08:17:09;;;;;;;0.00;0.00;;;;;;;27.35;43.08;102210.56;5018594;28;20469;-70
2023/08/10 08:19:36;;;;;;;0.00;0.00;;;;;;;27.14;43.51;102206.50;5011522;28;20405;-71
2023/08/10 08:22:02;;;;;;;0.00;0.00;;;;;;;26.89;43.64;102205.81;5010664;28;20038;-70
2023/08/10 08:24:27;;;;;;;0.00;0.00;;;;;;;26.78;45.12;102203.53;5021588;28;20099;-70
2023/08/10 08:26:53;;;;;;;0.00;0.00;;;;;;;27.59;43.70;102211.22;5007184;28;20777;-71
2023/08/10 08:29:18;;;;;;;0.00;0.00;;;;;;;27.60;43.27;102221.13;5015359;28;20397;-71
2023/08/10 08:31:44;;;;;;;0.00;0.00;;;;;;;27.67;43.00;102221.56;5016906;28;20060;-71
2023/08/10 08:34:09;;;;;;;0.00;0.00;;;;;;;27.65;42.78;102218.28;5010768;28;20048;-71
2023/08/10 08:36:34;;;;;;;0.00;0.00;;;;;;;27.51;42.90;102229.31;5010336;28;20397;-70
2023/08/10 08:39:00;;;;;;;0.00;0.00;;;;;;;28.11;42.06;102224.53;5013772;28;20046;-70
2023/08/10 08:41:31;;;;;;;0.00;0.00;;;;;;;28.12;42.55;102230.88;5020757;28;20562;-71
2023/08/10 08:43:57;;;;;;;0.00;0.00;;;;;;;28.32;41.89;102227.69;5018544;28;20026;-70
2023/08/10 08:46:28;;;;;;;0.00;0.00;;;;;;;28.42;42.07;102228.25;5010648;28;20079;-71
2023/08/10 08:48:54;;;;;;;;;;;;;;;28.94;40.72;102224.00;5022244;28;20116;-72
2023/08/10 08:51:19;;;;;;;0.00;0.00;;;;;;;28.32;40.98;102222.16;5009957;28;19925;-71
2023/08/10 08:53:45;;;;;;;0.00;0.00;;;;;;;28.42;42.55;102222.72;5009023;28;20091;-72
2023/08/10 08:56:10;;;;;;;0.00;0.00;;;;;;;28.66;41.78;102216.94;5013140;28;20513;-71
2023/08/10 08:58:37;;;;;;;0.00;0.00;;;;;;;28.50;40.36;102224.75;5014453;28;20017;-71
2023/08/10 09:01:03;;;;;;;0.00;0.00;;;;;;;28.51;39.30;102217.28;5029738;28;20034;-72
2023/08/10 09:03:29;;;;;;;0.00;0.00;;;;;;;28.08;39.46;102216.88;5023050;28;20045;-71
2023/08/10 09:05:54;;;;;;;0.00;0.00;;;;;;;28.37;39.87;102208.19;5030681;28;20405;-71
2023/08/10 09:08:21;;;;;;;0.00;0.00;;;;;;;28.12;40.31;102212.34;5012532;28;20092;-70
2023/08/10 09:10:47;;;;;;;0.00;0.00;;;;;;;27.86;40.58;102210.38;5010640;28;20104;-70
2023/08/10 09:13:17;;;;;;;0.00;0.00;;;;;;;27.51;39.98;102207.22;5009902;28;20037;-71
2023/08/10 09:15:42;;;;;;;0.00;0.00;;;;;;;27.19;39.20;102201.72;5010743;28;20045;-70
2023/08/10 09:18:08;;;;;;;0.00;0.00;;;;;;;27.70;38.03;102196.91;5022110;28;20394;-72
2023/08/10 09:20:34;;;;;;;0.00;0.00;;;;;;;27.95;37.86;102205.81;5010634;28;20061;-71
2023/08/10 09:23:00;;;;;;;0.00;0.00;;;;;;;28.60;38.62;102204.34;5010448;28;20107;-71
2023/08/10 09:25:26;;;;;;;0.00;0.00;;;;;;;28.84;36.80;102213.16;5010873;28;20033;-70
2023/08/10 09:27:52;;;;;;;0.00;0.00;;;;;;;27.36;40.96;102209.47;5013820;28;20038;-69
2023/08/10 09:30:19;;;;;;;0.00;0.00;;;;;;;28.61;39.48;102209.59;5026693;28;20091;-72
2023/08/10 09:32:45;;;;;;;0.00;0.00;;;;;;;28.71;39.97;102207.69;5010302;28;20034;-72
2023/08/10 09:35:19;;;;;;;0.00;0.00;;;;;;;29.14;40.34;102197.75;5010717;28;20044;-70
2023/08/10 09:37:47;;;;;;;0.00;0.00;;;;;;;29.48;39.21;102211.81;5010866;28;20025;-71
2023/08/10 09:40:15;;;;;;;0.00;0.00;;;;;;;28.90;39.28;102209.13;5014157;28;20026;-71
2023/08/10 09:42:41;;;;;;;0.00;0.00;;;;;;;29.13;39.39;102208.00;5026266;28;20440;-70
2023/08/10 09:45:09;;;;;;;0.00;0.00;;;;;;;29.77;39.58;102209.34;5012646;28;20034;-70
2023/08/10 09:47:37;;;;;;;0.00;0.00;;;;;;;29.47;36.05;102208.22;5017016;28;20052;-71
2023/08/10 09:50:05;;;;;;;0.00;0.00;;;;;;;29.18;36.43;102215.38;5014548;28;20045;-71
2023/08/10 09:52:33;;;;;;;0.00;0.00;;;;;;;29.46;37.21;102214.88;5009232;28;20111;-71
2023/08/10 09:54:59;;;;;;;0.00;0.00;;;;;;;29.39;37.03;102210.94;5010153;28;20034;-72
2023/08/10 09:57:25;;;;;;;0.00;0.00;;;;;;;28.86;36.62;102210.06;5013402;28;20034;-71
2023/08/10 09:59:51;;;;;;;0.00;0.00;;;;;;;29.70;36.30;102213.69;5021352;28;20040;-72
2023/08/10 10:02:20;;;;;;;0.00;0.00;;;;;;;29.94;35.36;102217.69;5028350;28;20045;-72
2023/08/10 10:04:46;;;;;;;0.00;0.00;;;;;;;29.28;35.60;102217.88;5015242;28;20022;-73
2023/08/10 10:07:12;;;;;;;0.00;0.00;;;;;;;29.21;35.11;102210.03;5021335;28;20052;-72
2023/08/10 10:09:39;;;;;;;0.00;0.00;;;;;;;29.37;36.02;102207.66;5009885;28;20037;-72
2023/08/10 10:12:13;;;;;;;0.00;0.00;;;;;;;29.58;35.18;102211.53;5020988;28;20045;-71
2023/08/10 10:14:42;;;;;;;0.00;0.00;;;;;;;29.66;35.03;102207.16;4994730;28;20034;-71
2023/08/10 10:17:09;;;;;;;0.00;0.00;;;;;;;29.74;35.53;102201.66;5014037;28;20049;-73
2023/08/10 10:19:34;;;;;;;0.00;0.00;;;;;;;30.33;36.61;102196.59;5014542;28;20029;-72
2023/08/10 10:22:00;;;;;;;0.00;0.00;;;;;;;29.81;34.45;102207.56;5017323;28;20543;-73
2023/08/10 10:24:33;;;;;;;0.00;0.00;;;;;;;28.88;35.78;102207.81;5030247;28;20057;-73
2023/08/10 10:27:04;;;;;;;0.00;0.00;;;;;;;29.86;35.06;102210.16;5013470;28;20124;-70
2023/08/10 10:29:41;;;;;;;0.00;0.00;;;;;;;30.05;34.91;102207.94;5004224;28;20046;-71
2023/08/10 10:32:09;;;;;;;0.00;0.00;;;;;;;30.23;36.43;102206.03;5005879;28;20117;-70
2023/08/10 10:34:36;;;;;;;0.00;0.00;;;;;;;29.91;34.59;102201.72;5005897;28;20123;-70
2023/08/10 10:37:20;;;;;;;0.00;0.00;;;;;;;30.29;33.74;102202.78;5004453;28;20062;-70
2023/08/10 10:39:49;;;;;;;0.00;0.00;;;;;;;29.85;35.47;102204.94;5005822;28;20045;-70
2023/08/10 10:42:16;;;;;;;0.00;0.00;;;;;;;30.63;34.24;102204.75;5004837;28;20034;-70
2023/08/10 10:45:14;;;;;;;0.00;0.00;;;;;;;30.64;33.47;102197.25;5007255;28;20042;-70
2023/08/10 10:47:41;;;;;;;0.00;0.00;;;;;;;30.27;35.41;102199.47;5003383;28;20093;-70
2023/08/10 10:50:23;;;;;;;0.00;0.00;;;;;;;30.65;34.70;102202.47;5006458;28;20477;-71
2023/08/10 10:52:53;;;;;;;0.00;0.00;;;;;;;30.10;35.47;102195.88;5004067;28;20144;-69
2023/08/10 10:55:19;;;;;;;0.00;0.00;;;;;;;30.14;34.77;102194.09;5019221;28;20037;-71
2023/08/10 10:57:48;;;;;;;0.00;0.00;;;;;;;30.14;35.19;102197.69;5004465;28;20037;-70
2023/08/10 11:00:14;;;;;;;0.00;0.00;;;;;;;30.43;34.52;102202.63;5009867;28;20045;-70
2023/08/10 11:02:40;;;;;;;0.00;0.00;;;;;;;30.12;35.20;102202.72;5006710;28;20030;-71
2023/08/10 11:05:13;;;;;;;0.00;0.00;;;;;;;30.33;35.05;102196.59;5003325;28;20131;-69
2023/08/10 11:07:47;;;;;;;0.00;0.00;;;;;;;30.01;36.39;102187.56;5004973;28;20029;-70
2023/08/10 11:10:13;;;;;;;0.00;0.00;;;;;;;31.00;34.74;102194.94;5005042;28;20045;-70
2023/08/10 11:12:41;;;;;;;0.00;0.00;;;;;;;29.97;36.21;102196.84;5006411;28;20056;-72
2023/08/10 11:15:12;;;;;;;0.00;0.00;;;;;;;28.92;37.13;102190.28;5004925;28;20026;-71
2023/08/10 11:17:39;;;;;;;0.00;0.00;;;;;;;29.91;36.84;102200.91;5004319;28;20026;-70
2023/08/10 11:20:14;;;;;;;0.00;0.00;;;;;;;30.77;36.49;102193.47;5005886;28;20415;-70
2023/08/10 11:22:44;;;;;;;0.00;0.00;;;;;;;29.85;36.94;102182.78;5005987;28;20018;-70